createdAt,value
2017-12-20T00:00:36.656Z,8.93
2017-12-20T00:03:04.701Z,10.85
2017-12-20T00:05:33.508Z,10.20
2017-12-20T00:08:02.325Z,11.15
2017-12-20T00:10:31.793Z,9.30
2017-12-20T00:13:00.680Z,9.27
2017-12-20T00:15:28.718Z,8.63
2017-12-20T00:17:57.557Z,9.45
2017-12-20T00:20:25.626Z,9.55
2017-12-20T00:22:53.660Z,8.75
2017-12-20T00:25:21.695Z,10.30
2017-12-20T00:27:49.762Z,7.93
2017-12-20T00:30:18.589Z,9.82
2017-12-20T00:32:46.627Z,9.63
2017-12-20T00:35:15.565Z,10.00
2017-12-20T00:37:43.621Z,11.73
2017-12-20T00:40:12.437Z,9.65
2017-12-20T00:42:41.260Z,9.40
2017-12-20T00:45:09.293Z,8.32
2017-12-20T00:47:37.337Z,8.90
2017-12-20T00:50:05.385Z,9.20
2017-12-20T00:52:34.574Z,9.48
2017-12-20T00:55:02.668Z,9.80
2017-12-20T00:57:31.501Z,11.35
2017-12-20T00:59:59.520Z,10.25
2017-12-20T01:02:27.588Z,10.07
2017-12-20T01:04:55.616Z,8.82
2017-12-20T01:07:23.677Z,8.10
2017-12-20T01:09:51.753Z,8.90
2017-12-20T01:12:19.777Z,8.32
2017-12-20T01:14:48.585Z,8.63
2017-12-20T01:17:17.418Z,9.98
2017-12-20T01:19:45.482Z,7.30
2017-12-20T01:22:13.541Z,7.82
2017-12-20T01:24:41.569Z,7.18
2017-12-20T01:27:09.630Z,8.52
2017-12-20T01:29:37.662Z,7.95
2017-12-20T01:32:05.741Z,9.68
2017-12-20T01:34:33.777Z,7.18
2017-12-20T01:37:02.573Z,7.00
2017-12-20T01:39:31.385Z,6.90
2017-12-20T01:41:59.421Z,8.10
2017-12-20T01:44:27.494Z,8.90
2017-12-20T01:46:55.542Z,7.43
2017-12-20T01:49:23.605Z,9.25
2017-12-20T01:51:52.402Z,7.00
2017-12-20T01:54:21.213Z,6.82
2017-12-20T01:56:49.968Z,8.27
2017-12-20T01:59:18.059Z,8.30
2017-12-20T02:01:46.148Z,7.05
2017-12-20T02:04:14.144Z,8.23
2017-12-20T02:06:42.899Z,8.93
2017-12-20T02:09:10.921Z,7.60
2017-12-20T02:11:39.692Z,9.90
2017-12-20T02:14:07.718Z,8.63
2017-12-20T02:16:36.464Z,9.23
2017-12-20T02:19:04.452Z,9.35
2017-12-20T02:21:32.456Z,8.48
2017-12-20T02:24:00.448Z,8.52
2017-12-20T02:26:28.460Z,8.07
2017-12-20T02:28:56.443Z,10.57
2017-12-20T02:31:24.432Z,8.15
2017-12-20T02:33:52.437Z,7.82
2017-12-20T02:36:20.429Z,9.27
2017-12-20T02:38:48.440Z,8.52
2017-12-20T02:41:16.433Z,9.35
2017-12-20T02:43:44.552Z,7.45
2017-12-20T02:46:12.561Z,9.45
2017-12-20T02:48:40.553Z,9.32
2017-12-20T02:51:08.572Z,8.98
2017-12-20T02:53:37.348Z,8.25
2017-12-20T02:56:05.341Z,9.30
2017-12-20T02:58:33.352Z,8.43
2017-12-20T03:01:02.065Z,6.85
2017-12-20T03:03:30.084Z,7.70
2017-12-20T03:05:58.053Z,9.10
2017-12-20T03:08:26.048Z,7.62
2017-12-20T03:10:54.052Z,6.87
2017-12-20T03:13:22.032Z,7.00
2017-12-20T03:15:50.180Z,6.65
2017-12-20T03:18:18.167Z,7.78
2017-12-20T03:20:46.184Z,7.20
2017-12-20T03:23:14.192Z,5.90
2017-12-20T03:25:42.952Z,6.25
2017-12-20T03:28:10.992Z,7.50
2017-12-20T03:30:38.979Z,7.90
2017-12-20T03:33:06.973Z,6.32
2017-12-20T03:35:34.976Z,5.07
2017-12-20T03:38:03.695Z,8.25
2017-12-20T03:40:32.689Z,5.75
2017-12-20T03:43:00.964Z,6.15
2017-12-20T03:45:28.974Z,6.22
2017-12-20T03:47:56.960Z,6.53
2017-12-20T03:50:24.940Z,5.47
2017-12-20T03:52:52.941Z,6.00
2017-12-20T03:55:21.685Z,4.85
2017-12-20T03:57:49.688Z,5.35
2017-12-20T04:00:17.668Z,4.85
2017-12-20T04:02:45.652Z,6.18
2017-12-20T04:05:13.665Z,5.68
2017-12-20T04:07:42.416Z,6.62
2017-12-20T04:10:10.429Z,4.82
2017-12-20T04:12:38.424Z,6.93
2017-12-20T04:15:06.409Z,4.85
2017-12-20T04:17:35.176Z,4.60
2017-12-20T04:20:03.152Z,3.85
2017-12-20T04:22:31.176Z,5.10
2017-12-20T04:24:59.923Z,5.97
2017-12-20T04:27:27.967Z,4.82
2017-12-20T04:29:56.120Z,5.57
2017-12-20T04:32:24.101Z,5.05
2017-12-20T04:34:52.121Z,5.47
2017-12-20T04:37:20.877Z,5.82
2017-12-20T04:39:48.858Z,5.50
2017-12-20T04:42:16.896Z,5.28
2017-12-20T04:44:45.650Z,6.20
2017-12-20T04:47:13.680Z,6.22
2017-12-20T04:49:42.429Z,5.70
2017-12-20T04:52:10.416Z,6.03
2017-12-20T04:54:38.640Z,4.40
2017-12-20T04:57:07.392Z,5.12
2017-12-20T04:59:35.416Z,4.45
2017-12-20T05:02:04.169Z,5.55
2017-12-20T05:04:32.165Z,5.12
2017-12-20T05:07:00.170Z,4.18
2017-12-20T05:09:28.149Z,4.75
2017-12-20T05:11:56.170Z,4.90
2017-12-20T05:14:24.160Z,4.25
2017-12-20T05:16:52.169Z,4.72
2017-12-20T05:19:20.151Z,4.35
2017-12-20T05:21:48.150Z,4.72
2017-12-20T05:24:16.169Z,4.03
2017-12-20T05:26:44.936Z,4.22
2017-12-20T05:29:12.936Z,4.97
2017-12-20T05:31:40.937Z,4.47
2017-12-20T05:34:09.690Z,4.90
2017-12-20T05:36:37.724Z,5.30
2017-12-20T05:39:05.728Z,5.57
2017-12-20T05:41:33.708Z,5.15
2017-12-20T05:44:01.759Z,4.53
2017-12-20T05:46:29.744Z,4.70
2017-12-20T05:48:58.515Z,6.18
2017-12-20T05:51:26.720Z,4.53
2017-12-20T05:53:54.697Z,5.75
2017-12-20T05:56:22.697Z,5.45
2017-12-20T05:58:51.449Z,6.20
2017-12-20T06:01:20.760Z,6.03
2017-12-20T06:03:48.744Z,5.40
2017-12-20T06:06:16.737Z,5.30
2017-12-20T06:08:44.732Z,5.12
2017-12-20T06:11:12.712Z,5.15
2017-12-20T06:13:40.735Z,5.40
2017-12-20T06:16:08.725Z,6.45
2017-12-20T06:18:36.722Z,5.95
2017-12-20T06:21:04.732Z,6.65
2017-12-20T06:23:32.726Z,5.40
2017-12-20T06:26:00.825Z,6.07
2017-12-20T06:28:28.796Z,5.85
2017-12-20T06:30:56.785Z,4.22
2017-12-20T06:33:24.780Z,5.28
2017-12-20T06:35:53.524Z,3.47
2017-12-20T06:38:21.560Z,5.12
2017-12-20T06:40:50.328Z,5.35
2017-12-20T06:43:18.312Z,4.57
2017-12-20T06:45:46.315Z,4.78
2017-12-20T06:48:14.288Z,5.43
2017-12-20T06:50:42.304Z,5.50
2017-12-20T06:53:11.055Z,5.60
2017-12-20T06:55:39.056Z,5.78
2017-12-20T06:58:07.052Z,6.22
2017-12-20T07:00:35.796Z,5.32
2017-12-20T07:03:04.964Z,5.12
2017-12-20T07:05:33.024Z,5.03
2017-12-20T07:08:01.004Z,3.67
2017-12-20T07:10:28.993Z,4.32
2017-12-20T07:12:56.987Z,5.00
2017-12-20T07:15:25.784Z,4.78
2017-12-20T07:17:53.773Z,4.07
2017-12-20T07:20:21.772Z,5.15
2017-12-20T07:22:50.528Z,4.50
2017-12-20T07:25:18.517Z,4.35
2017-12-20T07:27:46.505Z,4.07
2017-12-20T07:30:14.512Z,4.85
2017-12-20T07:32:43.256Z,4.47
2017-12-20T07:35:11.252Z,4.53
2017-12-20T07:37:39.244Z,5.10
2017-12-20T07:40:07.238Z,5.07
2017-12-20T07:42:35.277Z,4.85
2017-12-20T07:45:03.260Z,4.82
2017-12-20T07:47:31.241Z,4.70
2017-12-20T07:49:59.244Z,7.90
2017-12-20T07:52:27.241Z,8.75
2017-12-20T07:54:55.337Z,8.32
2017-12-20T07:57:23.348Z,5.05
2017-12-20T07:59:52.104Z,4.60
2017-12-20T08:02:20.096Z,4.60
2017-12-20T08:04:48.072Z,4.65
2017-12-20T08:07:16.093Z,4.87
2017-12-20T08:09:44.861Z,5.20
2017-12-20T08:12:12.847Z,5.65
2017-12-20T08:14:40.876Z,4.50
2017-12-20T08:17:08.860Z,5.15
2017-12-20T08:19:36.985Z,4.65
2017-12-20T08:22:04.972Z,4.45
2017-12-20T08:24:32.951Z,3.90
2017-12-20T08:27:00.948Z,4.50
2017-12-20T08:29:28.924Z,5.30
2017-12-20T08:31:56.936Z,5.47
2017-12-20T08:34:25.687Z,5.75
2017-12-20T08:36:53.672Z,4.82
2017-12-20T08:39:22.432Z,5.43
2017-12-20T08:41:50.420Z,4.00
2017-12-20T08:44:19.271Z,4.80
2017-12-20T08:46:47.251Z,4.55
2017-12-20T08:49:17.195Z,4.78
2017-12-20T08:51:46.551Z,4.40
2017-12-20T08:54:14.597Z,4.35
2017-12-20T08:56:42.924Z,5.60
2017-12-20T08:59:11.876Z,5.55
2017-12-20T09:01:39.878Z,6.85
2017-12-20T09:04:07.880Z,5.85
2017-12-20T09:06:36.629Z,6.32
2017-12-20T09:09:04.643Z,5.68
2017-12-20T09:11:32.640Z,4.57
2017-12-20T09:14:01.404Z,4.70
2017-12-20T09:16:30.038Z,5.55
2017-12-20T09:18:58.793Z,5.43
2017-12-20T09:21:26.796Z,5.45
2017-12-20T09:23:54.777Z,6.50
2017-12-20T09:26:22.769Z,5.65
2017-12-20T09:28:50.779Z,5.47
2017-12-20T09:31:19.527Z,5.18
2017-12-20T09:33:47.557Z,4.82
2017-12-20T09:36:16.308Z,4.80
2017-12-20T09:38:44.296Z,4.95
2017-12-20T09:41:12.293Z,4.70
2017-12-20T09:43:40.297Z,4.45
2017-12-20T09:46:08.276Z,5.93
2017-12-20T09:48:37.025Z,4.37
2017-12-20T09:51:05.049Z,5.22
2017-12-20T09:53:33.028Z,5.35
2017-12-20T09:56:01.019Z,4.40
2017-12-20T09:58:29.017Z,4.60
2017-12-20T10:00:57.764Z,5.60
2017-12-20T10:03:25.784Z,4.95
2017-12-20T10:05:53.776Z,5.10
2017-12-20T10:08:22.538Z,5.70
2017-12-20T10:10:50.524Z,4.72
2017-12-20T10:13:18.548Z,4.95
2017-12-20T10:15:46.580Z,5.62
2017-12-20T10:18:14.580Z,6.65
2017-12-20T10:20:42.569Z,5.65
2017-12-20T10:23:10.580Z,6.68
2017-12-20T10:25:38.562Z,5.35
2017-12-20T10:28:06.594Z,5.95
2017-12-20T10:30:34.571Z,4.62
2017-12-20T10:33:02.560Z,5.97
2017-12-20T10:35:30.559Z,5.60
2017-12-20T10:37:58.544Z,6.18
2017-12-20T10:40:26.572Z,6.95
2017-12-20T10:42:54.567Z,6.55
2017-12-20T10:45:22.545Z,5.30
2017-12-20T10:47:50.559Z,6.25
2017-12-20T10:50:18.544Z,5.90
2017-12-20T10:52:46.771Z,6.70
2017-12-20T10:55:15.136Z,7.57
2017-12-20T10:57:43.142Z,7.30
2017-12-20T11:00:11.900Z,7.65
2017-12-20T11:02:39.900Z,7.25
2017-12-20T11:05:07.904Z,10.80
2017-12-20T11:07:35.949Z,6.93
2017-12-20T11:10:03.960Z,9.48
2017-12-20T11:12:31.944Z,7.53
2017-12-20T11:15:00.120Z,6.87
2017-12-20T11:17:28.131Z,5.95
2017-12-20T11:19:56.115Z,7.78
2017-12-20T11:22:24.705Z,8.85
2017-12-20T11:24:53.464Z,8.32
2017-12-20T11:27:21.460Z,6.40
2017-12-20T11:29:49.483Z,7.22
2017-12-20T11:32:17.483Z,6.93
2017-12-20T11:34:45.554Z,6.50
2017-12-20T11:37:14.284Z,7.10
2017-12-20T11:39:42.297Z,7.53
2017-12-20T11:42:10.297Z,9.05
2017-12-20T11:44:39.073Z,7.70
2017-12-20T11:47:07.092Z,5.90
2017-12-20T11:49:35.089Z,6.75
2017-12-20T11:52:03.068Z,6.10
2017-12-20T11:54:31.068Z,9.20
2017-12-20T11:56:59.056Z,7.35
2017-12-20T11:59:27.080Z,7.20
2017-12-20T12:01:55.073Z,7.12
2017-12-20T12:04:23.848Z,6.55
2017-12-20T12:06:51.852Z,7.95
2017-12-20T12:09:19.832Z,6.70
2017-12-20T12:11:48.616Z,8.18
2017-12-20T12:14:16.600Z,7.57
2017-12-20T12:16:45.376Z,8.23
2017-12-20T12:19:13.388Z,7.43
2017-12-20T12:21:41.381Z,9.50
2017-12-20T12:24:09.535Z,7.00
2017-12-20T12:26:37.529Z,8.88
2017-12-20T12:29:06.279Z,6.75
2017-12-20T12:31:34.280Z,6.72
2017-12-20T12:34:02.276Z,7.15
2017-12-20T12:36:30.320Z,7.62
2017-12-20T12:38:59.081Z,9.40
2017-12-20T12:41:27.077Z,8.18
2017-12-20T12:43:55.100Z,6.25
2017-12-20T12:46:23.088Z,7.00
2017-12-20T12:48:51.112Z,6.45
2017-12-20T12:51:19.122Z,8.43
2017-12-20T12:53:47.108Z,8.88
2017-12-20T12:56:15.883Z,8.27
2017-12-20T12:58:44.687Z,8.25
2017-12-20T13:01:12.754Z,7.68
2017-12-20T13:03:41.073Z,8.23
2017-12-20T13:06:09.065Z,7.95
2017-12-20T13:08:37.847Z,8.95
2017-12-20T13:11:05.846Z,7.15
2017-12-20T13:13:33.872Z,8.23
2017-12-20T13:16:01.849Z,8.43
2017-12-20T13:18:29.831Z,7.55
2017-12-20T13:20:57.852Z,7.32
2017-12-20T13:23:25.851Z,8.38
2017-12-20T13:25:55.436Z,7.15
2017-12-20T13:28:23.424Z,8.98
2017-12-20T13:30:51.412Z,7.22
2017-12-20T13:33:19.435Z,7.32
2017-12-20T13:35:48.180Z,6.93
2017-12-20T13:38:16.218Z,10.35
2017-12-20T13:40:45.000Z,6.78
2017-12-20T13:43:13.001Z,9.50
2017-12-20T13:45:41.768Z,8.50
2017-12-20T13:48:09.764Z,8.30
2017-12-20T13:50:37.806Z,7.78
2017-12-20T13:53:05.797Z,7.47
2017-12-20T13:55:33.791Z,8.73
2017-12-20T13:58:02.558Z,10.00
2017-12-20T14:00:30.552Z,10.05
2017-12-20T14:02:58.580Z,8.65
2017-12-20T14:05:26.569Z,9.60
2017-12-20T14:07:55.330Z,9.13
2017-12-20T14:10:23.324Z,8.95
2017-12-20T14:12:51.320Z,8.88
2017-12-20T14:15:19.345Z,9.30
2017-12-20T14:17:47.349Z,9.60
2017-12-20T14:20:15.340Z,10.20
2017-12-20T14:22:43.354Z,8.77
2017-12-20T14:25:11.328Z,10.10
2017-12-20T14:27:39.331Z,8.05
2017-12-20T14:30:07.316Z,9.60
2017-12-20T14:32:36.076Z,9.35
2017-12-20T14:35:04.076Z,8.35
2017-12-20T14:37:32.074Z,9.85
2017-12-20T14:40:00.833Z,8.95
2017-12-20T14:42:29.595Z,9.88
2017-12-20T14:44:58.368Z,8.88
2017-12-20T14:47:26.357Z,8.52
2017-12-20T14:49:54.365Z,9.77
2017-12-20T14:52:22.385Z,7.60
2017-12-20T14:54:51.426Z,10.60
2017-12-20T14:57:19.460Z,10.98
2017-12-20T14:59:47.468Z,10.85
2017-12-20T15:02:15.459Z,10.05
2017-12-20T15:04:43.491Z,9.90
2017-12-20T15:07:12.258Z,10.68
2017-12-20T15:09:40.452Z,8.80
2017-12-20T15:12:09.337Z,10.68
2017-12-20T15:14:37.330Z,8.95
2017-12-20T15:17:05.320Z,9.73
2017-12-20T15:19:34.081Z,9.73
2017-12-20T15:22:02.071Z,9.48
2017-12-20T15:24:30.093Z,14.27
2017-12-20T15:26:58.857Z,10.35
2017-12-20T15:29:26.880Z,7.75
2017-12-20T15:31:55.636Z,9.23
2017-12-20T15:34:23.637Z,9.60
2017-12-20T15:36:51.640Z,9.48
2017-12-20T15:39:20.388Z,9.23
2017-12-20T15:41:48.433Z,8.23
2017-12-20T15:44:17.180Z,8.68
2017-12-20T15:46:45.189Z,10.02
2017-12-20T15:49:13.212Z,8.70
2017-12-20T15:51:41.212Z,8.35
2017-12-20T15:54:09.228Z,8.52
2017-12-20T15:56:37.219Z,7.32
2017-12-20T15:59:05.204Z,8.43
2017-12-20T16:01:33.227Z,8.52
2017-12-20T16:04:01.208Z,8.98
2017-12-20T16:06:29.373Z,9.50
2017-12-20T16:08:57.320Z,10.30
2017-12-20T16:11:25.319Z,8.95
2017-12-20T16:13:53.316Z,9.95
2017-12-20T16:16:22.073Z,9.50
2017-12-20T16:18:50.117Z,8.88
2017-12-20T16:21:18.112Z,7.72
2017-12-20T16:23:46.105Z,7.75
2017-12-20T16:26:14.107Z,9.55
2017-12-20T16:28:42.097Z,8.88
2017-12-20T16:31:10.252Z,8.13
2017-12-20T16:33:38.228Z,8.10
2017-12-20T16:36:06.208Z,7.65
2017-12-20T16:38:34.228Z,7.68
2017-12-20T16:41:02.204Z,6.68
2017-12-20T16:43:30.216Z,8.80
2017-12-20T16:45:58.973Z,6.15
2017-12-20T16:48:26.964Z,6.55
2017-12-20T16:50:54.968Z,7.57
2017-12-20T16:53:34.748Z,6.62
2017-12-20T16:56:03.647Z,7.10
2017-12-20T16:58:32.412Z,7.65
2017-12-20T17:01:00.394Z,7.03
2017-12-20T17:03:28.405Z,7.97
2017-12-20T17:05:56.401Z,7.50
2017-12-20T17:08:25.172Z,7.10
2017-12-20T17:10:53.171Z,7.12
2017-12-20T17:13:21.168Z,7.50
2017-12-20T17:15:49.946Z,8.00
2017-12-20T17:18:17.937Z,7.62
2017-12-20T17:20:45.962Z,8.13
2017-12-20T17:23:14.717Z,7.35
2017-12-20T17:25:42.736Z,8.63
2017-12-20T17:28:10.778Z,7.10
2017-12-20T17:30:38.777Z,6.28
2017-12-20T17:33:06.801Z,7.75
2017-12-20T17:35:35.108Z,7.45
2017-12-20T17:38:03.097Z,8.05
2017-12-20T17:40:31.473Z,9.02
2017-12-20T17:42:59.605Z,8.95
2017-12-20T17:45:27.616Z,6.72
2017-12-20T17:47:55.628Z,7.65
2017-12-20T17:50:23.648Z,9.25
2017-12-20T17:52:51.645Z,8.85
2017-12-20T17:55:20.400Z,8.60
2017-12-20T17:57:48.408Z,7.57
2017-12-20T18:00:16.396Z,8.50
2017-12-20T18:02:44.417Z,9.18
2017-12-20T18:05:12.456Z,9.80
2017-12-20T18:07:40.444Z,10.15
2017-12-20T18:10:08.445Z,8.32
2017-12-20T18:12:37.191Z,9.63
2017-12-20T18:15:05.331Z,11.80
2017-12-20T18:17:34.092Z,9.43
2017-12-20T18:20:03.612Z,10.02
2017-12-20T18:22:31.620Z,11.95
2017-12-20T18:25:00.394Z,10.65
2017-12-20T18:27:28.412Z,10.13
2017-12-20T18:29:57.180Z,11.15
2017-12-20T18:32:25.164Z,9.80
2017-12-20T18:34:53.166Z,10.93
2017-12-20T18:37:21.189Z,9.48
2017-12-20T18:39:49.299Z,9.52
2017-12-20T18:42:17.293Z,10.02
2017-12-20T18:44:45.317Z,12.40
2017-12-20T18:47:14.104Z,9.70
2017-12-20T18:49:42.167Z,12.70
2017-12-20T18:52:10.317Z,9.57
2017-12-20T18:54:39.109Z,10.73
2017-12-20T18:57:07.084Z,9.80
2017-12-20T18:59:35.092Z,10.02
2017-12-20T19:02:03.088Z,9.48
2017-12-20T19:04:31.216Z,10.48
2017-12-20T19:06:59.976Z,11.45
2017-12-20T19:09:27.977Z,8.55
2017-12-20T19:11:55.981Z,10.43
2017-12-20T19:14:24.728Z,9.25
2017-12-20T19:16:52.767Z,10.80
2017-12-20T19:19:22.065Z,9.77
2017-12-20T19:21:50.048Z,9.88
2017-12-20T19:24:18.051Z,8.88
2017-12-20T19:26:46.808Z,9.25
2017-12-20T19:29:14.872Z,8.65
2017-12-20T19:31:42.868Z,9.10
2017-12-20T19:34:10.851Z,8.82
2017-12-20T19:36:38.878Z,9.55
2017-12-20T19:39:07.644Z,10.00
2017-12-20T19:41:35.660Z,8.98
2017-12-20T19:44:04.424Z,10.50
2017-12-20T19:46:32.424Z,8.80
2017-12-20T19:49:00.420Z,8.77
2017-12-20T19:51:29.176Z,9.70
2017-12-20T19:53:57.195Z,8.30
2017-12-20T19:56:25.188Z,8.93
2017-12-20T19:58:53.945Z,9.82
2017-12-20T20:01:21.953Z,9.55
2017-12-20T20:03:49.940Z,11.10
2017-12-20T20:06:17.968Z,7.90
2017-12-20T20:08:45.968Z,9.93
2017-12-20T20:11:13.969Z,10.55
2017-12-20T20:13:41.986Z,8.77
2017-12-20T20:16:10.748Z,8.98
2017-12-20T20:18:39.536Z,9.30
2017-12-20T20:21:07.540Z,9.70
2017-12-20T20:23:35.551Z,10.88
2017-12-20T20:26:04.368Z,9.00
2017-12-20T20:28:32.369Z,10.13
2017-12-20T20:31:00.372Z,9.82
2017-12-20T20:33:28.365Z,10.90
2017-12-20T20:35:56.400Z,8.35
2017-12-20T20:38:25.156Z,7.95
2017-12-20T20:40:53.145Z,8.52
2017-12-20T20:43:21.149Z,10.35
2017-12-20T20:45:49.912Z,9.73
2017-12-20T20:48:17.956Z,10.40
2017-12-20T20:50:45.957Z,10.73
2017-12-20T20:53:15.007Z,9.88
2017-12-20T20:55:43.880Z,10.70
2017-12-20T20:58:11.872Z,10.73
2017-12-20T21:00:40.246Z,9.60
2017-12-20T21:03:08.248Z,10.43
2017-12-20T21:05:36.228Z,8.60
2017-12-20T21:08:04.226Z,10.13
2017-12-20T21:10:32.224Z,10.88
2017-12-20T21:13:00.236Z,10.27
2017-12-20T21:15:28.230Z,10.05
2017-12-20T21:17:56.376Z,8.50
2017-12-20T21:20:24.402Z,10.27
2017-12-20T21:22:52.880Z,10.07
2017-12-20T21:25:21.045Z,9.77
2017-12-20T21:27:49.036Z,10.82
2017-12-20T21:30:17.836Z,8.98
2017-12-20T21:32:46.613Z,9.10
2017-12-20T21:35:14.616Z,9.48
2017-12-20T21:37:43.412Z,11.80
2017-12-20T21:40:12.191Z,12.23
2017-12-20T21:42:40.180Z,10.90
2017-12-20T21:45:09.085Z,11.73
2017-12-20T21:47:37.077Z,10.38
2017-12-20T21:50:06.041Z,10.60
2017-12-20T21:52:34.316Z,10.85
2017-12-20T21:55:02.312Z,10.82
2017-12-20T21:57:30.329Z,11.73
2017-12-20T21:59:58.329Z,10.05
2017-12-20T22:02:27.116Z,11.55
2017-12-20T22:04:55.139Z,10.70
2017-12-20T22:07:23.135Z,11.90
2017-12-20T22:09:51.152Z,11.18
2017-12-20T22:12:19.164Z,10.23
2017-12-20T22:14:48.057Z,11.90
2017-12-20T22:17:16.188Z,10.88
2017-12-20T22:19:44.180Z,12.57
2017-12-20T22:22:12.225Z,12.80
2017-12-20T22:24:40.988Z,11.32
2017-12-20T22:27:09.016Z,13.32
2017-12-20T22:29:37.004Z,11.63
2017-12-20T22:32:05.012Z,11.05
2017-12-20T22:34:33.014Z,12.85
2017-12-20T22:37:01.011Z,10.85
2017-12-20T22:39:29.033Z,12.70
2017-12-20T22:41:57.027Z,11.65
2017-12-20T22:44:25.012Z,10.65
2017-12-20T22:46:53.036Z,12.15
2017-12-20T22:49:21.029Z,12.37
2017-12-20T22:51:49.058Z,14.98
2017-12-20T22:54:17.065Z,10.90
2017-12-20T22:56:45.287Z,12.18
2017-12-20T22:59:13.289Z,9.75
2017-12-20T23:01:42.995Z,11.32
2017-12-20T23:04:11.203Z,12.75
2017-12-20T23:06:40.144Z,12.70
2017-12-20T23:09:08.148Z,12.15
2017-12-20T23:11:36.159Z,13.70
2017-12-20T23:14:04.924Z,11.02
2017-12-20T23:16:33.137Z,12.27
2017-12-20T23:19:01.901Z,12.30
2017-12-20T23:21:29.892Z,11.27
2017-12-20T23:23:57.904Z,12.10
2017-12-20T23:26:26.673Z,11.98
2017-12-20T23:28:54.736Z,11.40
2017-12-20T23:31:22.689Z,12.05
2017-12-20T23:33:50.685Z,10.98
2017-12-20T23:36:19.136Z,11.55
2017-12-20T23:38:47.143Z,12.70
2017-12-20T23:41:15.888Z,12.40
2017-12-20T23:43:43.928Z,10.07
2017-12-20T23:46:12.691Z,11.52
2017-12-20T23:48:40.683Z,13.62
2017-12-20T23:51:08.847Z,11.05
2017-12-20T23:53:36.823Z,11.32
2017-12-20T23:56:04.820Z,11.60
2017-12-20T23:58:32.837Z,11.88
